KFFL/FFL METAR and TAF weather

Enter ICAO airport designator
Station Type Date Time Source
KFFL METAR 2019/12/10 03:15 UTC NOAA

KFFL 100315Z AUTO 30011G22KT 10SM CLR M09/M13 A2999 RMK A01


Station Type Date Time Source
KFFL Decoded METAR 2019/12/10 03:15 UTC NOAA

Fair Field, IA, United States (KFFL) 41-03N 091-59W
Dec 09, 2019 - 10:15 PM EST / 2019.12.10 0315 UTC
Wind: from the WNW (300 degrees) at 13 MPH (11 KT) gusting to 25 MPH (22 KT):0
Visibility: 10 mile(s):0
Sky conditions: clear
Temperature: 15 F (-9 C)
Windchill: 1 F (-17 C):1
Dew Point: 8 F (-13 C)
Relative Humidity: 72%
Pressure (altimeter): 29.99 in. Hg (1015 hPa)
ob: KFFL 100315Z AUTO 30011G22KT 10SM CLR M09/M13 A2999 RMK A01
cycle: 3

Station Type Date Time Source
KFFL TAF UTC NOAA

Error!

Example: see airport list